sensor_id;sensor_type;location;lat;lon;timestamp;temperature;humidity
12708;DHT22;6418;50.824;4.718;2022-08-01T00:02:18;21.00;99.90
12708;DHT22;6418;50.824;4.718;2022-08-01T00:04:45;21.00;99.90
12708;DHT22;6418;50.824;4.718;2022-08-01T00:07:12;20.90;99.90
12708;DHT22;6418;50.824;4.718;2022-08-01T00:09:40;21.00;99.90
12708;DHT22;6418;50.824;4.718;2022-08-01T00:12:07;20.90;99.90
12708;DHT22;6418;50.824;4.718;2022-08-01T00:14:34;20.90;99.90
12708;DHT22;6418;50.824;4.718;2022-08-01T00:17:01;20.90;99.90
12708;DHT22;6418;50.824;4.718;2022-08-01T00:19:28;20.90;99.90
12708;DHT22;6418;50.824;4.718;2022-08-01T00:21:55;20.90;99.90
12708;DHT22;6418;50.824;4.718;2022-08-01T00:24:22;20.90;99.90
12708;DHT22;6418;50.824;4.718;2022-08-01T00:26:50;20.90;99.90
12708;DHT22;6418;50.824;4.718;2022-08-01T00:29:17;20.90;99.90
12708;DHT22;6418;50.824;4.718;2022-08-01T00:31:44;20.90;99.90
12708;DHT22;6418;50.824;4.718;2022-08-01T00:34:11;20.90;99.90
12708;DHT22;6418;50.824;4.718;2022-08-01T00:36:38;20.90;99.90
12708;DHT22;6418;50.824;4.718;2022-08-01T00:39:04;20.80;99.90
12708;DHT22;6418;50.824;4.718;2022-08-01T00:41:31;20.90;99.90
12708;DHT22;6418;50.824;4.718;2022-08-01T00:44:02;20.80;99.90
12708;DHT22;6418;50.824;4.718;2022-08-01T00:46:29;20.90;99.90
12708;DHT22;6418;50.824;4.718;2022-08-01T00:48:57;20.80;99.90
12708;DHT22;6418;50.824;4.718;2022-08-01T00:51:24;20.80;99.90
12708;DHT22;6418;50.824;4.718;2022-08-01T00:53:52;20.80;99.90
12708;DHT22;6418;50.824;4.718;2022-08-01T00:56:20;20.80;99.90
12708;DHT22;6418;50.824;4.718;2022-08-01T00:58:48;20.70;99.90
12708;DHT22;6418;50.824;4.718;2022-08-01T01:01:16;20.70;99.90
12708;DHT22;6418;50.824;4.718;2022-08-01T01:03:46;20.70;99.90
12708;DHT22;6418;50.824;4.718;2022-08-01T01:06:23;20.70;99.90
12708;DHT22;6418;50.824;4.718;2022-08-01T01:08:58;20.70;99.90
12708;DHT22;6418;50.824;4.718;2022-08-01T01:11:32;20.60;99.90
12708;DHT22;6418;50.824;4.718;2022-08-01T01:14:05;20.60;99.90
12708;DHT22;6418;50.824;4.718;2022-08-01T01:16:37;20.60;99.90
12708;DHT22;6418;50.824;4.718;2022-08-01T01:19:10;20.50;99.90
12708;DHT22;6418;50.824;4.718;2022-08-01T01:21:53;20.50;99.90
12708;DHT22;6418;50.824;4.718;2022-08-01T01:24:32;20.50;99.90
12708;DHT22;6418;50.824;4.718;2022-08-01T01:27:12;20.50;99.90
12708;DHT22;6418;50.824;4.718;2022-08-01T01:29:48;20.40;99.90
12708;DHT22;6418;50.824;4.718;2022-08-01T01:32:20;20.50;99.90
12708;DHT22;6418;50.824;4.718;2022-08-01T01:34:49;20.40;99.90
12708;DHT22;6418;50.824;4.718;2022-08-01T01:37:19;20.40;99.90
12708;DHT22;6418;50.824;4.718;2022-08-01T01:39:48;20.40;99.90
12708;DHT22;6418;50.824;4.718;2022-08-01T01:42:17;20.40;99.90
12708;DHT22;6418;50.824;4.718;2022-08-01T01:44:46;20.40;99.90
12708;DHT22;6418;50.824;4.718;2022-08-01T01:47:16;20.30;99.90
12708;DHT22;6418;50.824;4.718;2022-08-01T01:49:45;20.40;99.90
12708;DHT22;6418;50.824;4.718;2022-08-01T01:52:13;20.30;99.90
12708;DHT22;6418;50.824;4.718;2022-08-01T01:54:50;20.40;99.90
12708;DHT22;6418;50.824;4.718;2022-08-01T01:57:18;20.30;99.90
12708;DHT22;6418;50.824;4.718;2022-08-01T01:59:48;20.30;99.90
12708;DHT22;6418;50.824;4.718;2022-08-01T02:02:16;20.40;99.90
12708;DHT22;6418;50.824;4.718;2022-08-01T02:04:45;20.40;99.90
12708;DHT22;6418;50.824;4.718;2022-08-01T02:07:14;20.40;99.90
12708;DHT22;6418;50.824;4.718;2022-08-01T02:09:43;20.30;99.90
12708;DHT22;6418;50.824;4.718;2022-08-01T02:12:10;20.30;99.90
12708;DHT22;6418;50.824;4.718;2022-08-01T02:14:39;20.30;99.90
12708;DHT22;6418;50.824;4.718;2022-08-01T02:17:11;20.30;99.90
12708;DHT22;6418;50.824;4.718;2022-08-01T02:19:38;20.30;99.90
12708;DHT22;6418;50.824;4.718;2022-08-01T02:22:09;20.40;99.90
12708;DHT22;6418;50.824;4.718;2022-08-01T02:24:39;20.40;99.90
12708;DHT22;6418;50.824;4.718;2022-08-01T02:27:10;20.40;99.90
12708;DHT22;6418;50.824;4.718;2022-08-01T02:29:42;20.30;99.90
12708;DHT22;6418;50.824;4.718;2022-08-01T02:32:16;20.30;99.90
12708;DHT22;6418;50.824;4.718;2022-08-01T02:34:46;20.40;99.90
12708;DHT22;6418;50.824;4.718;2022-08-01T02:37:16;20.40;99.90
12708;DHT22;6418;50.824;4.718;2022-08-01T02:39:45;20.30;99.90
12708;DHT22;6418;50.824;4.718;2022-08-01T02:42:14;20.40;99.90
12708;DHT22;6418;50.824;4.718;2022-08-01T02:44:42;20.30;99.90
12708;DHT22;6418;50.824;4.718;2022-08-01T02:47:11;20.30;99.90
12708;DHT22;6418;50.824;4.718;2022-08-01T02:49:42;20.30;99.90
12708;DHT22;6418;50.824;4.718;2022-08-01T02:52:12;20.40;99.90
12708;DHT22;6418;50.824;4.718;2022-08-01T02:54:40;20.40;99.90
12708;DHT22;6418;50.824;4.718;2022-08-01T02:57:09;20.30;99.90
12708;DHT22;6418;50.824;4.718;2022-08-01T02:59:37;20.40;99.90
12708;DHT22;6418;50.824;4.718;2022-08-01T03:02:06;20.30;99.90
12708;DHT22;6418;50.824;4.718;2022-08-01T03:04:36;20.40;99.90
12708;DHT22;6418;50.824;4.718;2022-08-01T03:07:06;20.40;99.90
12708;DHT22;6418;50.824;4.718;2022-08-01T03:09:46;20.30;99.90
12708;DHT22;6418;50.824;4.718;2022-08-01T03:12:16;20.30;99.90
12708;DHT22;6418;50.824;4.718;2022-08-01T03:14:46;20.30;99.90
12708;DHT22;6418;50.824;4.718;2022-08-01T03:17:15;20.30;99.90
12708;DHT22;6418;50.824;4.718;2022-08-01T03:19:45;20.30;99.90
12708;DHT22;6418;50.824;4.718;2022-08-01T03:22:13;20.30;99.90
12708;DHT22;6418;50.824;4.718;2022-08-01T03:24:42;20.30;99.90
12708;DHT22;6418;50.824;4.718;2022-08-01T03:27:11;20.30;99.90
12708;DHT22;6418;50.824;4.718;2022-08-01T03:29:41;20.30;99.90
12708;DHT22;6418;50.824;4.718;2022-08-01T03:32:09;20.30;99.90
12708;DHT22;6418;50.824;4.718;2022-08-01T03:34:37;20.30;99.90
12708;DHT22;6418;50.824;4.718;2022-08-01T03:37:07;20.30;99.90
12708;DHT22;6418;50.824;4.718;2022-08-01T03:39:44;20.30;99.90
12708;DHT22;6418;50.824;4.718;2022-08-01T03:42:18;20.30;99.90
12708;DHT22;6418;50.824;4.718;2022-08-01T03:44:49;20.30;99.90
12708;DHT22;6418;50.824;4.718;2022-08-01T03:47:19;20.30;99.90
12708;DHT22;6418;50.824;4.718;2022-08-01T03:49:49;20.30;99.90
12708;DHT22;6418;50.824;4.718;2022-08-01T03:52:19;20.20;99.90
12708;DHT22;6418;50.824;4.718;2022-08-01T03:54:48;20.30;99.90
12708;DHT22;6418;50.824;4.718;2022-08-01T03:57:17;20.20;99.90
12708;DHT22;6418;50.824;4.718;2022-08-01T03:59:45;20.20;99.90
12708;DHT22;6418;50.824;4.718;2022-08-01T04:02:12;20.20;99.90
12708;DHT22;6418;50.824;4.718;2022-08-01T04:04:40;20.20;99.90
12708;DHT22;6418;50.824;4.718;2022-08-01T04:07:22;20.20;99.90
12708;DHT22;6418;50.824;4.718;2022-08-01T04:09:50;20.20;99.90
12708;DHT22;6418;50.824;4.718;2022-08-01T04:12:17;20.20;99.90
12708;DHT22;6418;50.824;4.718;2022-08-01T04:14:44;20.20;99.90
12708;DHT22;6418;50.824;4.718;2022-08-01T04:17:11;20.20;99.90
12708;DHT22;6418;50.824;4.718;2022-08-01T04:19:38;20.10;99.90
12708;DHT22;6418;50.824;4.718;2022-08-01T04:22:06;20.10;99.90
12708;DHT22;6418;50.824;4.718;2022-08-01T04:24:35;20.10;99.90
12708;DHT22;6418;50.824;4.718;2022-08-01T04:27:05;20.00;99.90
12708;DHT22;6418;50.824;4.718;2022-08-01T04:29:36;20.00;99.90
12708;DHT22;6418;50.824;4.718;2022-08-01T04:32:05;20.00;99.90
12708;DHT22;6418;50.824;4.718;2022-08-01T04:34:34;19.90;99.90
12708;DHT22;6418;50.824;4.718;2022-08-01T04:37:03;19.90;99.90
12708;DHT22;6418;50.824;4.718;2022-08-01T04:39:32;19.80;99.90
12708;DHT22;6418;50.824;4.718;2022-08-01T04:42:04;19.80;99.90
12708;DHT22;6418;50.824;4.718;2022-08-01T04:44:32;19.80;99.90
12708;DHT22;6418;50.824;4.718;2022-08-01T04:47:00;19.80;99.90
12708;DHT22;6418;50.824;4.718;2022-08-01T04:49:30;19.80;99.90
12708;DHT22;6418;50.824;4.718;2022-08-01T04:51:57;19.70;99.90
12708;DHT22;6418;50.824;4.718;2022-08-01T04:54:25;19.70;99.90
12708;DHT22;6418;50.824;4.718;2022-08-01T04:56:53;19.70;99.90
12708;DHT22;6418;50.824;4.718;2022-08-01T04:59:22;19.70;99.90
12708;DHT22;6418;50.824;4.718;2022-08-01T05:02:08;19.70;99.90
12708;DHT22;6418;50.824;4.718;2022-08-01T05:04:36;19.60;99.90
12708;DHT22;6418;50.824;4.718;2022-08-01T05:07:04;19.60;99.90
12708;DHT22;6418;50.824;4.718;2022-08-01T05:09:31;19.60;99.90
12708;DHT22;6418;50.824;4.718;2022-08-01T05:11:58;19.60;99.90
12708;DHT22;6418;50.824;4.718;2022-08-01T05:14:28;19.60;99.90
12708;DHT22;6418;50.824;4.718;2022-08-01T05:16:57;19.50;99.90
12708;DHT22;6418;50.824;4.718;2022-08-01T05:19:24;19.50;99.90
12708;DHT22;6418;50.824;4.718;2022-08-01T05:21:52;19.50;99.90
12708;DHT22;6418;50.824;4.718;2022-08-01T05:24:19;19.50;99.90
12708;DHT22;6418;50.824;4.718;2022-08-01T05:26:46;19.50;99.90
12708;DHT22;6418;50.824;4.718;2022-08-01T05:29:14;19.40;99.90
12708;DHT22;6418;50.824;4.718;2022-08-01T05:31:42;19.40;99.90
12708;DHT22;6418;50.824;4.718;2022-08-01T05:34:09;19.40;99.90
12708;DHT22;6418;50.824;4.718;2022-08-01T05:36:36;19.40;99.90
12708;DHT22;6418;50.824;4.718;2022-08-01T05:39:03;19.40;99.90
12708;DHT22;6418;50.824;4.718;2022-08-01T05:41:30;19.40;99.90
12708;DHT22;6418;50.824;4.718;2022-08-01T05:44:00;19.40;99.90
12708;DHT22;6418;50.824;4.718;2022-08-01T05:46:27;19.50;99.90
12708;DHT22;6418;50.824;4.718;2022-08-01T05:48:57;19.50;99.90
12708;DHT22;6418;50.824;4.718;2022-08-01T05:51:24;19.50;99.90
12708;DHT22;6418;50.824;4.718;2022-08-01T05:53:56;19.50;99.90
12708;DHT22;6418;50.824;4.718;2022-08-01T05:56:23;19.50;99.90
12708;DHT22;6418;50.824;4.718;2022-08-01T05:58:50;19.50;99.90
12708;DHT22;6418;50.824;4.718;2022-08-01T06:01:20;19.50;99.90
12708;DHT22;6418;50.824;4.718;2022-08-01T06:03:47;19.50;99.90
12708;DHT22;6418;50.824;4.718;2022-08-01T06:06:16;19.60;99.90
12708;DHT22;6418;50.824;4.718;2022-08-01T06:08:42;19.60;99.90
12708;DHT22;6418;50.824;4.718;2022-08-01T06:11:09;19.60;99.90
12708;DHT22;6418;50.824;4.718;2022-08-01T06:13:36;19.60;99.90
12708;DHT22;6418;50.824;4.718;2022-08-01T06:16:04;19.70;99.90
12708;DHT22;6418;50.824;4.718;2022-08-01T06:18:31;19.80;99.90
12708;DHT22;6418;50.824;4.718;2022-08-01T06:20:58;19.80;99.90
12708;DHT22;6418;50.824;4.718;2022-08-01T06:23:26;19.90;99.90
12708;DHT22;6418;50.824;4.718;2022-08-01T06:25:53;20.00;99.90
12708;DHT22;6418;50.824;4.718;2022-08-01T06:28:20;20.00;99.90
12708;DHT22;6418;50.824;4.718;2022-08-01T06:30:48;20.00;99.90
12708;DHT22;6418;50.824;4.718;2022-08-01T06:33:15;20.10;99.90
12708;DHT22;6418;50.824;4.718;2022-08-01T06:35:42;20.10;99.90
12708;DHT22;6418;50.824;4.718;2022-08-01T06:38:09;20.20;99.90
12708;DHT22;6418;50.824;4.718;2022-08-01T06:40:37;20.20;99.90
12708;DHT22;6418;50.824;4.718;2022-08-01T06:43:04;20.20;99.90
12708;DHT22;6418;50.824;4.718;2022-08-01T06:45:31;20.30;99.90
12708;DHT22;6418;50.824;4.718;2022-08-01T06:47:58;20.20;99.90
12708;DHT22;6418;50.824;4.718;2022-08-01T06:50:25;20.30;99.90
12708;DHT22;6418;50.824;4.718;2022-08-01T06:52:52;20.40;99.90
12708;DHT22;6418;50.824;4.718;2022-08-01T06:55:19;20.50;99.90
12708;DHT22;6418;50.824;4.718;2022-08-01T06:57:49;20.60;99.90
12708;DHT22;6418;50.824;4.718;2022-08-01T07:00:17;20.70;99.90
12708;DHT22;6418;50.824;4.718;2022-08-01T07:02:47;20.80;99.90
12708;DHT22;6418;50.824;4.718;2022-08-01T07:05:15;20.80;99.90
12708;DHT22;6418;50.824;4.718;2022-08-01T07:07:42;21.00;99.90
12708;DHT22;6418;50.824;4.718;2022-08-01T07:10:09;21.00;99.90
12708;DHT22;6418;50.824;4.718;2022-08-01T07:12:36;21.10;99.90
12708;DHT22;6418;50.824;4.718;2022-08-01T07:15:07;21.10;99.90
12708;DHT22;6418;50.824;4.718;2022-08-01T07:17:36;21.10;99.90
12708;DHT22;6418;50.824;4.718;2022-08-01T07:20:06;21.10;99.90
12708;DHT22;6418;50.824;4.718;2022-08-01T07:22:33;21.20;99.90
12708;DHT22;6418;50.824;4.718;2022-08-01T07:25:00;21.30;99.90
12708;DHT22;6418;50.824;4.718;2022-08-01T07:27:27;21.30;99.90
12708;DHT22;6418;50.824;4.718;2022-08-01T07:29:53;21.40;99.90
12708;DHT22;6418;50.824;4.718;2022-08-01T07:32:22;21.30;99.90
12708;DHT22;6418;50.824;4.718;2022-08-01T07:34:49;21.30;99.90
12708;DHT22;6418;50.824;4.718;2022-08-01T07:37:16;21.40;99.90
12708;DHT22;6418;50.824;4.718;2022-08-01T07:39:43;21.40;99.90
12708;DHT22;6418;50.824;4.718;2022-08-01T07:42:10;21.50;99.90
12708;DHT22;6418;50.824;4.718;2022-08-01T07:44:37;21.60;99.90
12708;DHT22;6418;50.824;4.718;2022-08-01T07:47:04;21.60;99.90
12708;DHT22;6418;50.824;4.718;2022-08-01T07:49:33;21.60;99.90
12708;DHT22;6418;50.824;4.718;2022-08-01T07:52:00;21.60;99.90
12708;DHT22;6418;50.824;4.718;2022-08-01T07:54:27;21.60;99.90
12708;DHT22;6418;50.824;4.718;2022-08-01T07:56:54;21.60;99.90
12708;DHT22;6418;50.824;4.718;2022-08-01T07:59:21;21.60;99.90
12708;DHT22;6418;50.824;4.718;2022-08-01T08:01:49;21.70;99.90
12708;DHT22;6418;50.824;4.718;2022-08-01T08:04:16;21.70;99.90
12708;DHT22;6418;50.824;4.718;2022-08-01T08:06:44;21.70;99.90
12708;DHT22;6418;50.824;4.718;2022-08-01T08:09:13;21.70;99.90
12708;DHT22;6418;50.824;4.718;2022-08-01T08:11:42;21.80;99.90
12708;DHT22;6418;50.824;4.718;2022-08-01T08:14:09;21.90;99.90
12708;DHT22;6418;50.824;4.718;2022-08-01T08:16:36;21.90;99.90
12708;DHT22;6418;50.824;4.718;2022-08-01T08:19:02;22.00;99.90
12708;DHT22;6418;50.824;4.718;2022-08-01T08:21:29;22.00;99.90
12708;DHT22;6418;50.824;4.718;2022-08-01T08:23:58;22.10;99.90
12708;DHT22;6418;50.824;4.718;2022-08-01T08:26:42;22.00;99.90
12708;DHT22;6418;50.824;4.718;2022-08-01T08:29:09;22.10;99.90
12708;DHT22;6418;50.824;4.718;2022-08-01T08:31:36;22.10;99.90
12708;DHT22;6418;50.824;4.718;2022-08-01T08:34:03;22.10;99.90
12708;DHT22;6418;50.824;4.718;2022-08-01T08:36:30;22.10;99.90
12708;DHT22;6418;50.824;4.718;2022-08-01T08:38:58;22.10;99.90
12708;DHT22;6418;50.824;4.718;2022-08-01T08:41:28;22.10;99.90
12708;DHT22;6418;50.824;4.718;2022-08-01T08:43:55;22.20;99.90
12708;DHT22;6418;50.824;4.718;2022-08-01T08:46:25;22.20;99.90
12708;DHT22;6418;50.824;4.718;2022-08-01T08:48:53;22.30;99.90
12708;DHT22;6418;50.824;4.718;2022-08-01T08:51:21;22.40;99.90
12708;DHT22;6418;50.824;4.718;2022-08-01T08:53:51;22.50;99.90
12708;DHT22;6418;50.824;4.718;2022-08-01T08:56:23;22.30;99.90
12708;DHT22;6418;50.824;4.718;2022-08-01T08:58:51;22.20;99.90
12708;DHT22;6418;50.824;4.718;2022-08-01T09:01:18;22.20;99.90
12708;DHT22;6418;50.824;4.718;2022-08-01T09:03:48;22.20;99.90
12708;DHT22;6418;50.824;4.718;2022-08-01T09:06:15;22.40;99.90
12708;DHT22;6418;50.824;4.718;2022-08-01T09:08:42;22.60;99.90
12708;DHT22;6418;50.824;4.718;2022-08-01T09:11:09;22.70;99.90
12708;DHT22;6418;50.824;4.718;2022-08-01T09:13:37;22.70;99.90
12708;DHT22;6418;50.824;4.718;2022-08-01T09:16:05;22.80;99.90
12708;DHT22;6418;50.824;4.718;2022-08-01T09:18:34;22.90;99.90
12708;DHT22;6418;50.824;4.718;2022-08-01T09:21:12;23.00;99.90
12708;DHT22;6418;50.824;4.718;2022-08-01T09:23:43;23.10;99.90
12708;DHT22;6418;50.824;4.718;2022-08-01T09:26:12;23.10;99.90
12708;DHT22;6418;50.824;4.718;2022-08-01T09:28:41;23.20;99.90
12708;DHT22;6418;50.824;4.718;2022-08-01T09:31:09;23.40;99.90
12708;DHT22;6418;50.824;4.718;2022-08-01T09:33:55;23.50;99.90
12708;DHT22;6418;50.824;4.718;2022-08-01T09:36:23;23.50;99.90
12708;DHT22;6418;50.824;4.718;2022-08-01T09:38:51;23.60;99.90
12708;DHT22;6418;50.824;4.718;2022-08-01T09:41:29;23.60;99.90
12708;DHT22;6418;50.824;4.718;2022-08-01T09:43:58;23.60;99.90
12708;DHT22;6418;50.824;4.718;2022-08-01T09:46:25;23.60;99.90
12708;DHT22;6418;50.824;4.718;2022-08-01T09:48:56;23.60;99.90
12708;DHT22;6418;50.824;4.718;2022-08-01T09:51:32;23.50;99.90
12708;DHT22;6418;50.824;4.718;2022-08-01T09:53:59;23.50;99.90
12708;DHT22;6418;50.824;4.718;2022-08-01T09:56:36;23.60;99.90
12708;DHT22;6418;50.824;4.718;2022-08-01T09:59:05;23.60;99.90
12708;DHT22;6418;50.824;4.718;2022-08-01T10:01:45;23.60;99.90
12708;DHT22;6418;50.824;4.718;2022-08-01T10:04:14;23.60;99.90
12708;DHT22;6418;50.824;4.718;2022-08-01T10:06:42;23.70;99.90
12708;DHT22;6418;50.824;4.718;2022-08-01T10:09:10;23.80;99.90
12708;DHT22;6418;50.824;4.718;2022-08-01T10:11:41;23.70;99.90
12708;DHT22;6418;50.824;4.718;2022-08-01T10:14:09;23.60;99.90
12708;DHT22;6418;50.824;4.718;2022-08-01T10:16:39;23.70;99.90
12708;DHT22;6418;50.824;4.718;2022-08-01T10:19:07;23.70;99.90
12708;DHT22;6418;50.824;4.718;2022-08-01T10:21:37;23.80;99.90
12708;DHT22;6418;50.824;4.718;2022-08-01T10:24:05;23.80;99.90
12708;DHT22;6418;50.824;4.718;2022-08-01T10:26:35;23.80;99.90
12708;DHT22;6418;50.824;4.718;2022-08-01T10:29:03;23.90;99.90
12708;DHT22;6418;50.824;4.718;2022-08-01T10:31:32;23.90;99.90
12708;DHT22;6418;50.824;4.718;2022-08-01T10:33:59;24.00;99.90
12708;DHT22;6418;50.824;4.718;2022-08-01T10:36:27;24.10;99.90
12708;DHT22;6418;50.824;4.718;2022-08-01T10:38:55;24.20;99.90
12708;DHT22;6418;50.824;4.718;2022-08-01T10:41:22;24.30;99.90
12708;DHT22;6418;50.824;4.718;2022-08-01T10:43:51;24.40;99.90
12708;DHT22;6418;50.824;4.718;2022-08-01T10:46:19;24.50;99.90
12708;DHT22;6418;50.824;4.718;2022-08-01T10:48:55;24.60;99.90
12708;DHT22;6418;50.824;4.718;2022-08-01T10:51:23;24.70;99.90
12708;DHT22;6418;50.824;4.718;2022-08-01T10:53:52;24.70;99.90
12708;DHT22;6418;50.824;4.718;2022-08-01T10:56:20;24.80;99.90
12708;DHT22;6418;50.824;4.718;2022-08-01T10:58:48;24.90;99.90
12708;DHT22;6418;50.824;4.718;2022-08-01T11:01:22;24.90;99.90
12708;DHT22;6418;50.824;4.718;2022-08-01T11:04:01;25.00;99.90
12708;DHT22;6418;50.824;4.718;2022-08-01T11:06:38;24.90;99.90
12708;DHT22;6418;50.824;4.718;2022-08-01T11:09:19;25.00;99.90
12708;DHT22;6418;50.824;4.718;2022-08-01T11:12:04;25.10;99.90
12708;DHT22;6418;50.824;4.718;2022-08-01T11:14:35;25.10;99.90
12708;DHT22;6418;50.824;4.718;2022-08-01T11:17:31;24.80;99.90
12708;DHT22;6418;50.824;4.718;2022-08-01T11:20:11;25.00;99.90
12708;DHT22;6418;50.824;4.718;2022-08-01T11:26:14;25.20;99.90
12708;DHT22;6418;50.824;4.718;2022-08-01T11:28:43;25.30;99.90
12708;DHT22;6418;50.824;4.718;2022-08-01T11:31:28;25.30;99.90
12708;DHT22;6418;50.824;4.718;2022-08-01T11:33:56;25.40;99.90
12708;DHT22;6418;50.824;4.718;2022-08-01T11:36:24;25.50;99.90
12708;DHT22;6418;50.824;4.718;2022-08-01T11:39:18;25.50;99.90
12708;DHT22;6418;50.824;4.718;2022-08-01T11:41:48;25.50;99.90
12708;DHT22;6418;50.824;4.718;2022-08-01T11:44:22;25.40;99.90
12708;DHT22;6418;50.824;4.718;2022-08-01T11:46:56;25.40;99.90
12708;DHT22;6418;50.824;4.718;2022-08-01T11:49:46;25.10;99.90
12708;DHT22;6418;50.824;4.718;2022-08-01T11:52:19;25.30;99.90
12708;DHT22;6418;50.824;4.718;2022-08-01T11:54:52;25.50;99.90
12708;DHT22;6418;50.824;4.718;2022-08-01T11:57:20;25.70;99.90
12708;DHT22;6418;50.824;4.718;2022-08-01T11:59:49;25.80;99.90
12708;DHT22;6418;50.824;4.718;2022-08-01T12:02:18;25.90;99.90
12708;DHT22;6418;50.824;4.718;2022-08-01T12:04:48;25.80;99.90
12708;DHT22;6418;50.824;4.718;2022-08-01T12:07:17;25.80;99.90
12708;DHT22;6418;50.824;4.718;2022-08-01T12:09:45;25.70;99.90
12708;DHT22;6418;50.824;4.718;2022-08-01T12:12:16;25.80;99.90
12708;DHT22;6418;50.824;4.718;2022-08-01T12:14:45;25.90;99.90
12708;DHT22;6418;50.824;4.718;2022-08-01T12:17:12;26.00;99.90
12708;DHT22;6418;50.824;4.718;2022-08-01T12:19:40;26.00;99.90
12708;DHT22;6418;50.824;4.718;2022-08-01T12:22:13;26.00;99.90
12708;DHT22;6418;50.824;4.718;2022-08-01T12:24:42;26.10;99.90
12708;DHT22;6418;50.824;4.718;2022-08-01T12:27:10;26.30;99.90
12708;DHT22;6418;50.824;4.718;2022-08-01T12:29:39;26.30;99.90
12708;DHT22;6418;50.824;4.718;2022-08-01T12:32:22;26.10;99.90
12708;DHT22;6418;50.824;4.718;2022-08-01T12:34:50;26.20;99.90
12708;DHT22;6418;50.824;4.718;2022-08-01T12:37:17;26.10;99.90
12708;DHT22;6418;50.824;4.718;2022-08-01T12:39:46;26.30;99.90
12708;DHT22;6418;50.824;4.718;2022-08-01T12:42:13;26.50;99.90
12708;DHT22;6418;50.824;4.718;2022-08-01T12:44:43;26.50;99.90
12708;DHT22;6418;50.824;4.718;2022-08-01T12:47:11;26.60;99.90
12708;DHT22;6418;50.824;4.718;2022-08-01T12:49:38;26.50;99.90
12708;DHT22;6418;50.824;4.718;2022-08-01T12:52:07;26.50;99.90
12708;DHT22;6418;50.824;4.718;2022-08-01T12:55:09;26.50;99.90
12708;DHT22;6418;50.824;4.718;2022-08-01T12:57:39;26.60;99.90
12708;DHT22;6418;50.824;4.718;2022-08-01T13:00:15;26.70;99.90
12708;DHT22;6418;50.824;4.718;2022-08-01T13:02:44;26.80;99.90
12708;DHT22;6418;50.824;4.718;2022-08-01T13:05:12;26.70;99.90
12708;DHT22;6418;50.824;4.718;2022-08-01T13:07:47;26.70;99.90
12708;DHT22;6418;50.824;4.718;2022-08-01T13:10:25;26.70;99.90
12708;DHT22;6418;50.824;4.718;2022-08-01T13:12:53;26.70;99.90
12708;DHT22;6418;50.824;4.718;2022-08-01T13:15:23;26.80;99.90
12708;DHT22;6418;50.824;4.718;2022-08-01T13:17:51;26.70;99.90
12708;DHT22;6418;50.824;4.718;2022-08-01T13:20:22;26.80;99.90
12708;DHT22;6418;50.824;4.718;2022-08-01T13:22:50;26.80;99.90
12708;DHT22;6418;50.824;4.718;2022-08-01T13:25:18;26.80;99.90
12708;DHT22;6418;50.824;4.718;2022-08-01T13:27:46;26.90;99.90
12708;DHT22;6418;50.824;4.718;2022-08-01T13:30:14;26.90;99.90
12708;DHT22;6418;50.824;4.718;2022-08-01T13:32:42;27.00;99.90
12708;DHT22;6418;50.824;4.718;2022-08-01T13:35:11;27.10;99.90
12708;DHT22;6418;50.824;4.718;2022-08-01T13:37:40;27.10;99.90
12708;DHT22;6418;50.824;4.718;2022-08-01T13:40:10;27.00;99.90
12708;DHT22;6418;50.824;4.718;2022-08-01T13:42:38;27.10;99.90
12708;DHT22;6418;50.824;4.718;2022-08-01T13:45:07;27.10;99.90
12708;DHT22;6418;50.824;4.718;2022-08-01T13:47:36;26.90;99.90
12708;DHT22;6418;50.824;4.718;2022-08-01T13:50:04;26.70;99.90
12708;DHT22;6418;50.824;4.718;2022-08-01T13:52:31;26.80;99.90
12708;DHT22;6418;50.824;4.718;2022-08-01T13:54:58;26.90;99.90
12708;DHT22;6418;50.824;4.718;2022-08-01T13:57:25;27.20;99.90
12708;DHT22;6418;50.824;4.718;2022-08-01T13:59:54;27.50;99.90
12708;DHT22;6418;50.824;4.718;2022-08-01T14:02:21;27.70;99.90
12708;DHT22;6418;50.824;4.718;2022-08-01T14:04:47;27.80;99.90
12708;DHT22;6418;50.824;4.718;2022-08-01T14:07:14;27.70;99.90
12708;DHT22;6418;50.824;4.718;2022-08-01T14:09:41;27.70;99.90
12708;DHT22;6418;50.824;4.718;2022-08-01T14:12:08;27.50;99.90
12708;DHT22;6418;50.824;4.718;2022-08-01T14:14:35;27.60;99.90
12708;DHT22;6418;50.824;4.718;2022-08-01T14:17:05;27.50;99.90
12708;DHT22;6418;50.824;4.718;2022-08-01T14:19:31;27.60;99.90
12708;DHT22;6418;50.824;4.718;2022-08-01T14:21:58;27.40;99.90
12708;DHT22;6418;50.824;4.718;2022-08-01T14:24:25;27.70;99.90
12708;DHT22;6418;50.824;4.718;2022-08-01T14:26:53;27.90;99.90
12708;DHT22;6418;50.824;4.718;2022-08-01T14:29:19;28.40;99.90
12708;DHT22;6418;50.824;4.718;2022-08-01T14:31:46;28.80;99.90
12708;DHT22;6418;50.824;4.718;2022-08-01T14:34:15;29.30;99.90
12708;DHT22;6418;50.824;4.718;2022-08-01T14:36:42;29.50;99.90
12708;DHT22;6418;50.824;4.718;2022-08-01T14:39:09;29.80;99.90
12708;DHT22;6418;50.824;4.718;2022-08-01T14:41:36;30.10;99.90
12708;DHT22;6418;50.824;4.718;2022-08-01T14:44:03;30.50;99.90
12708;DHT22;6418;50.824;4.718;2022-08-01T14:46:30;30.80;99.90
12708;DHT22;6418;50.824;4.718;2022-08-01T14:48:57;31.40;99.70
12708;DHT22;6418;50.824;4.718;2022-08-01T14:51:25;31.80;99.50
12708;DHT22;6418;50.824;4.718;2022-08-01T14:53:52;32.30;99.90
12708;DHT22;6418;50.824;4.718;2022-08-01T14:56:19;32.40;97.30
12708;DHT22;6418;50.824;4.718;2022-08-01T14:58:46;32.10;97.40
12708;DHT22;6418;50.824;4.718;2022-08-01T15:01:13;32.50;98.40
12708;DHT22;6418;50.824;4.718;2022-08-01T15:03:40;32.80;99.50
12708;DHT22;6418;50.824;4.718;2022-08-01T15:06:07;33.20;98.30
12708;DHT22;6418;50.824;4.718;2022-08-01T15:08:38;33.50;95.70
12708;DHT22;6418;50.824;4.718;2022-08-01T15:11:05;33.50;96.60
12708;DHT22;6418;50.824;4.718;2022-08-01T15:13:32;33.90;96.70
12708;DHT22;6418;50.824;4.718;2022-08-01T15:15:59;34.20;97.00
12708;DHT22;6418;50.824;4.718;2022-08-01T15:18:26;34.40;97.50
12708;DHT22;6418;50.824;4.718;2022-08-01T15:20:53;34.50;96.40
12708;DHT22;6418;50.824;4.718;2022-08-01T15:23:21;34.50;96.20
12708;DHT22;6418;50.824;4.718;2022-08-01T15:25:49;34.20;94.50
12708;DHT22;6418;50.824;4.718;2022-08-01T15:28:16;33.40;94.60
12708;DHT22;6418;50.824;4.718;2022-08-01T15:30:43;33.50;95.20
12708;DHT22;6418;50.824;4.718;2022-08-01T15:33:10;33.80;93.90
12708;DHT22;6418;50.824;4.718;2022-08-01T15:35:37;33.50;93.20
12708;DHT22;6418;50.824;4.718;2022-08-01T15:38:05;34.00;95.50
12708;DHT22;6418;50.824;4.718;2022-08-01T15:40:32;34.60;94.00
12708;DHT22;6418;50.824;4.718;2022-08-01T15:43:01;34.40;92.80
12708;DHT22;6418;50.824;4.718;2022-08-01T15:45:28;34.50;93.40
12708;DHT22;6418;50.824;4.718;2022-08-01T15:47:55;34.50;94.70
12708;DHT22;6418;50.824;4.718;2022-08-01T15:50:22;35.00;93.90
12708;DHT22;6418;50.824;4.718;2022-08-01T15:52:49;35.20;94.00
12708;DHT22;6418;50.824;4.718;2022-08-01T15:55:16;33.80;91.80
12708;DHT22;6418;50.824;4.718;2022-08-01T15:57:43;34.00;94.60
12708;DHT22;6418;50.824;4.718;2022-08-01T16:00:11;34.10;93.50
12708;DHT22;6418;50.824;4.718;2022-08-01T16:02:39;34.50;93.70